Home > Products > Valid Products > TAF

000
FTUS45 KMSO 280000 AAA
TAFMSO
TAF AMD
KMSO 280054Z 2801/2824 01010G20KT P6SM SKC
     FM280200 VRB03KT P6SM SKC
     FM282200 33009KT P6SM SKC=



000
FTUS45 KMSO 272300
TAFBTM
TAF
KBTM 272323Z 2800/2824 VRB06KT P6SM SKC=



000
FTUS45 KMSO 272300
TAFSMN
TAF
KSMN 272323Z 2800/2824 VRB04KT P6SM SKC
      AMD LTD TO CLD VIS AND WIND=



000
FTUS45 KMSO 272300
TAFMSO
TAF
KMSO 272323Z 2800/2824 33009G18KT P6SM SKC
     FM280200 VRB03KT P6SM SKC
     FM282200 33009KT P6SM SKC=



000
FTUS45 KMSO 272300
TAFGPI
TAF
KGPI 272323Z 2800/2824 VRB05KT P6SM SKC=



000
FTUS45 KMSO 271700
TAFBTM
TAF
KBTM 271720Z 2718/2818 VRB06KT P6SM FEW200=



000
FTUS45 KMSO 271700
TAFGPI
TAF
KGPI 271720Z 2718/2818 VRB05KT P6SM FEW200=



000
FTUS45 KMSO 271700
TAFMSO
TAF
KMSO 271720Z 2718/2818 VRB05KT P6SM SKC
     FM280000 31009KT P6SM FEW250
     FM280400 VRB03KT P6SM SCT200=



000
FTUS45 KMSO 271700
TAFSMN
TAF
KSMN 271720Z 2718/2818 VRB05KT P6SM FEW200
      AMD LTD TO CLD VIS AND WIND=



000
FTUS45 KMSO 271100
TAFBTM
TAF
KBTM 271120Z 2712/2812 VRB06KT P6SM SKC
     FM272200 31012KT P6SM SKC=



000
FTUS45 KMSO 271100
TAFMSO
TAF
KMSO 271120Z 2712/2812 VRB05KT P6SM SKC
     FM272200 31009KT P6SM SKC=



000
FTUS45 KMSO 271100
TAFGPI
TAF
KGPI 271120Z 2712/2812 VRB05KT P6SM SKC=



000
FTUS45 KMSO 271100
TAFSMN
TAF
KSMN 271120Z 2712/2812 VRB05KT P6SM SKC
      AMD LTD TO CLD VIS AND WIND=



000
FTUS45 KMSO 270500
TAFBTM
TAF
KBTM 270520Z 2706/2806 VRB05KT P6SM SKC
     FM272200 31012KT P6SM SKC=



000
FTUS45 KMSO 270500
TAFMSO
TAF
KMSO 270520Z 2706/2806 VRB05KT P6SM SKC
     FM272200 31009KT P6SM SKC=



000
FTUS45 KMSO 270500
TAFGPI
TAF
KGPI 270520Z 2706/2806 VRB05KT P6SM SKC=



000
FTUS45 KMSO 270500
TAFSMN
TAF
KSMN 270520Z 2706/2806 VRB05KT P6SM SKC
      AMD LTD TO CLD VIS AND WIND=



000
FTUS45 KMSO 262300
TAFMSO
TAF
KMSO 262320Z 2700/2724 VRB05KT P6SM SKC
     FM272200 31009KT P6SM SKC=



000
FTUS45 KMSO 262300
TAFSMN
TAF
KSMN 262320Z 2700/2724 VRB05KT P6SM SKC
      AMD LTD TO CLD VIS AND WIND=



000
FTUS45 KMSO 262300
TAFGPI
TAF
KGPI 262320Z 2700/2724 VRB05KT P6SM SKC=



000
FTUS45 KMSO 262300
TAFBTM
TAF
KBTM 262320Z 2700/2724 VRB05KT P6SM SKC
     FM272200 31012KT P6SM SKC=



000
FTUS45 KMSO 261800 AAA
TAFGPI
TAF AMD
KGPI 261801Z 2618/2718 VRB05KT P6SM SKC=



000
FTUS45 KMSO 261800 AAA
TAFMSO
TAF AMD
KMSO 261801Z 2618/2718 VRB05KT P6SM SKC=



000
FTUS45 KMSO 261800 AAA
TAFBTM
TAF AMD
KBTM 261801Z 2618/2718 VRB05KT P6SM SKC=



000
FTUS45 KMSO 261800 AAA
TAFSMN
TAF AMD
KSMN 261801Z 2618/2718 VRB05KT P6SM SKC
      AMD LTD TO CLD VIS AND WIND=



000
FTUS45 KMSO 261100
TAFMSO
TAF
KMSO 261120Z 2612/2712 VRB05KT P6SM SKC=



000
FTUS45 KMSO 261100
TAFSMN
TAF
KSMN 261120Z 2612/2712 VRB05KT P6SM SKC
      AMD LTD TO CLD VIS AND WIND=



000
FTUS45 KMSO 261100
TAFBTM
TAF
KBTM 261120Z 2612/2712 VRB05KT P6SM SKC=



000
FTUS45 KMSO 261100
TAFGPI
TAF
KGPI 261120Z 2612/2712 VRB05KT P6SM SKC=



000
FTUS45 KMSO 260500
TAFBTM
TAF
KBTM 260520Z 2606/2706 VRB05KT P6SM SKC=



000
FTUS45 KMSO 260500
TAFSMN
TAF
KSMN 260520Z 2606/2706 VRB05KT P6SM SKC
      AMD LTD TO CLD VIS AND WIND=



000
FTUS45 KMSO 260500
TAFMSO
TAF
KMSO 260520Z 2606/2706 VRB05KT P6SM SKC=



000
FTUS45 KMSO 260500
TAFGPI
TAF
KGPI 260520Z 2606/2706 VRB05KT P6SM SKC=



000
FTUS45 KMSO 252300
TAFGPI
TAF
KGPI 252320Z 2600/2624 28011KT P6SM FEW090
     FM260300 VRB05KT P6SM SKC
     FM261800 18007KT P6SM SKC=



000
FTUS45 KMSO 252300
TAFMSO
TAF
KMSO 252320Z 2600/2624 31014G21KT P6SM SKC
     FM260300 31005KT P6SM SKC
     FM262200 30006G12KT P6SM SKC=



000
FTUS45 KMSO 252300
TAFBTM
TAF
KBTM 252320Z 2600/2624 30013G20KT P6SM SKC
     FM260300 31006KT P6SM SKC
     FM260800 VRB04KT P6SM SKC
     FM262100 30008G15KT P6SM SKC=



000
FTUS45 KMSO 252300
TAFSMN
TAF
KSMN 252320Z 2600/2624 01011KT P6SM SKC
     FM260200 36006KT P6SM SKC
     FM260600 VRB03KT P6SM SKC
     FM261700 35004KT P6SM SKC
     FM262300 01010KT P6SM SKC
      AMD LTD TO CLD VIS AND WIND=



000
FTUS45 KMSO 251800 AAA
TAFGPI
TAF AMD
KGPI 251836Z 2519/2618 22012KT P6SM SKC
     FM252100 24015G25KT P6SM SKC
     FM260300 VRB05KT P6SM SKC=



000
FTUS45 KMSO 251700
TAFMSO
TAF
KMSO 251720Z 2518/2618 32012KT P6SM SKC
     FM252000 30015G25KT P6SM SKC
     FM260300 31008KT P6SM SKC=



000
FTUS45 KMSO 251700
TAFGPI
TAF
KGPI 251720Z 2518/2618 VRB05KT P6SM SCT090
     FM251900 19012KT P6SM SKC
     FM252100 24015G25KT P6SM SKC
     FM260300 VRB05KT P6SM SKC=



000
FTUS45 KMSO 251700
TAFSMN
TAF
KSMN 251720Z 2518/2618 VRB05KT P6SM SKC
     FM251900 30010G20KT P6SM SCT100
     FM260300 36006KT P6SM SKC
      AMD LTD TO CLD VIS AND WIND=



000
FTUS45 KMSO 251700
TAFBTM
TAF
KBTM 251720Z 2518/2618 VRB06KT P6SM SKC
     FM251900 29012G25KT P6SM SCT100
     FM260300 31006KT P6SM SKC=



000
FTUS45 KMSO 251100
TAFMSO
TAF
KMSO 251120Z 2512/2612 VRB05KT P6SM SKC
     FM251800 27012KT P6SM SKC
     FM252000 30015G25KT P6SM SKC
     FM260300 31008KT P6SM SKC=



000
FTUS45 KMSO 251100
TAFBTM
TAF
KBTM 251120Z 2512/2612 VRB06KT P6SM SKC
     FM251900 29012G25KT P6SM SCT100
     FM260300 31006KT P6SM SKC=



000
FTUS45 KMSO 251100
TAFGPI
TAF
KGPI 251120Z 2512/2612 VRB05KT P6SM SCT090
     FM251700 19012KT P6SM SKC
     FM252100 24015G25KT P6SM SKC
     FM260300 VRB05KT P6SM SKC=



000
FTUS45 KMSO 251100
TAFSMN
TAF
KSMN 251120Z 2512/2612 VRB05KT P6SM SKC
     FM251900 30010G20KT P6SM SCT100
     FM260300 36006KT P6SM SKC
      AMD LTD TO CLD VIS AND WIND=



000
FTUS45 KMSO 250500
TAFSMN
TAF
KSMN 250520Z 2506/2606 VRB05KT P6SM SKC
     FM251900 31010G20KT P6SM SCT100
     FM260300 VRB06KT P6SM SKC
      AMD LTD TO CLD VIS AND WIND=



000
FTUS45 KMSO 250500
TAFGPI
TAF
KGPI 250520Z 2506/2606 24010KT P6SM SCT090
     FM250900 VRB03KT P6SM SKC
     FM251700 19012KT P6SM SKC
     FM252100 24015G25KT P6SM SCT090
     FM260300 VRB05KT P6SM SKC=



000
FTUS45 KMSO 250500
TAFBTM
TAF
KBTM 250520Z 2506/2606 VRB05KT P6SM SKC
     FM251900 30012G25KT P6SM SCT100
     FM260300 VRB06KT P6SM SKC=



000
FTUS45 KMSO 250500
TAFMSO
TAF
KMSO 250520Z 2506/2606 VRB03KT P6SM SKC
     FM251800 27012KT P6SM SKC
     FM252000 30015G25KT P6SM SCT080
     FM260300 31008KT P6SM SKC=



    US Dept of Commerce
    National Oceanic and Atmospheric Administration
    National Weather Service
    1325 East West Highway
    Silver Spring, MD 20910
    Page Author: NWS Internet Services Team
Disclaimer
Information Quality
Credits
Glossary
Privacy Policy
Freedom of Information Act (FOIA)
About Us
Career Opportunities